»·PEaware :: N573HA KSBA-KSBP

N573HA :: KSBA-KSBP

FLIGHT INFORMATION

Flight Status: Arrived
Operator: Privately registered:
United States
More flights under this callsign
Pilot: Ravi V. (22543)
Aircraft: CESSNA 172 SKYHAWK
(C172)
More flights by this aircraft type
Origin: KSBA Santa Barbara Mun
United States
Destination: KSBP San Luis Co Regl
United States
More flights between these airports :: More routes between these airports
Route: +GVO MQO KSBP
File this flight plan on PilotEdge
Remarks:
Altitude:
(Current/Filed)
6,000ft
Speed:
(Current/Filed)
110kts
Departed: 02-Feb-19 01:52 PM
Arrived: 02-Feb-19 02:52 PM
Distance/Time
Traveled:
63nm/1:00
Distance/Time
To Go:
Arrived

Flight Plot

Page will automatically refresh every two minutes.

Flight plan parsing failed; only flown route is shown


Map Options




Map Legend


Flown Route
Filed Route
Departure Airport
Arrival Airport
Navaid (VOR, NDB)
Fix

Horizontal Profiles

Position Reports

Time Latitude Longitude Heading Altitude Ground
Speed
02-Feb-19 13:35 34.425815 -119.836718 189 17ft 0kts
02-Feb-19 13:36 34.425815 -119.836718 189 17ft 0kts
02-Feb-19 13:37 34.425815 -119.836718 189 17ft 0kts
02-Feb-19 13:38 34.425815 -119.836718 189 17ft 0kts
02-Feb-19 13:39 34.425754 -119.836876 250 17ft 0kts
02-Feb-19 13:40 34.425754 -119.836876 250 17ft 0kts
02-Feb-19 13:41 34.425754 -119.836876 250 17ft 0kts
02-Feb-19 13:42 34.425754 -119.836876 250 17ft 0kts
02-Feb-19 13:43 34.425754 -119.836876 250 17ft 0kts
02-Feb-19 13:44 34.425741 -119.836920 249 17ft 0kts
02-Feb-19 13:45 34.425741 -119.836920 249 17ft 0kts
02-Feb-19 13:46 34.425951 -119.837973 339 17ft 3kts
02-Feb-19 13:47 34.426735 -119.836016 88 17ft 9kts
02-Feb-19 13:48 34.427127 -119.835190 1 17ft 0kts
02-Feb-19 13:49 34.427127 -119.835190 1 17ft 0kts
02-Feb-19 13:50 34.427861 -119.835508 293 17ft 10kts
02-Feb-19 13:51 34.427714 -119.851839 262 489ft 79kts
02-Feb-19 13:52 34.427271 -119.877547 267 1547ft 77kts
02-Feb-19 13:53 34.428349 -119.903839 267 2510ft 78kts
02-Feb-19 13:54 34.428470 -119.930409 258 3411ft 79kts
02-Feb-19 13:55 34.428893 -119.957272 264 4272ft 80kts
02-Feb-19 13:56 34.430432 -119.984448 260 5077ft 80kts
02-Feb-19 13:57 34.443298 -120.003227 6 5818ft 103kts
02-Feb-19 13:58 34.475923 -120.005857 351 6011ft 137kts
02-Feb-19 14:00 34.502774 -120.017123 294 6050ft 125kts
02-Feb-19 14:01 34.513082 -120.044069 280 6068ft 114kts
02-Feb-19 14:02 34.519308 -120.060566 283 6097ft 111kts
02-Feb-19 14:03 34.526290 -120.095693 265 6088ft 102kts
02-Feb-19 14:04 34.552279 -120.116749 344 5936ft 142kts
02-Feb-19 14:05 34.588990 -120.105299 30 5903ft 142kts
02-Feb-19 14:06 34.619542 -120.094023 294 5981ft 105kts
02-Feb-19 14:07 34.632522 -120.122977 270 6105ft 93kts
02-Feb-19 14:08 34.638738 -120.153037 270 6067ft 86kts
02-Feb-19 14:09 34.650210 -120.183338 288 6097ft 107kts
02-Feb-19 14:10 34.668348 -120.215447 291 5970ft 115kts
02-Feb-19 14:11 34.686158 -120.247070 311 5967ft 122kts
02-Feb-19 14:12 34.717622 -120.266159 324 5974ft 127kts
02-Feb-19 14:13 34.749097 -120.285088 318 5970ft 124kts
02-Feb-19 14:14 34.777187 -120.308546 307 5968ft 118kts
02-Feb-19 14:15 34.802015 -120.334601 304 5960ft 116kts
02-Feb-19 14:16 34.825839 -120.361117 304 5960ft 116kts
02-Feb-19 14:16 34.847034 -120.382568 308 5957ft 117kts
02-Feb-19 14:18 34.879290 -120.410856 311 5955ft 117kts
02-Feb-19 14:19 34.906103 -120.433484 311 5954ft 116kts
02-Feb-19 14:19 34.928078 -120.452235 311 6012ft 113kts
02-Feb-19 14:20 34.953199 -120.475786 306 6016ft 114kts
02-Feb-19 14:22 34.984441 -120.502929 311 6019ft 117kts
02-Feb-19 14:23 35.010672 -120.526819 303 6016ft 115kts
02-Feb-19 14:23 35.030236 -120.549994 304 6018ft 117kts
02-Feb-19 14:24 35.056479 -120.576509 311 6016ft 121kts
02-Feb-19 14:25 35.084630 -120.602814 312 6014ft 123kts
02-Feb-19 14:26 35.112131 -120.628465 313 6007ft 124kts
02-Feb-19 14:27 35.139519 -120.654044 312 6008ft 124kts
02-Feb-19 14:28 35.167665 -120.680376 313 6008ft 129kts
02-Feb-19 14:29 35.196685 -120.707511 313 5998ft 130kts
02-Feb-19 14:30 35.223887 -120.731788 320 5714ft 114kts
02-Feb-19 14:31 35.246065 -120.752363 301 5339ft 87kts
02-Feb-19 14:32 35.263794 -120.775466 295 4744ft 97kts
02-Feb-19 14:33 35.281399 -120.804709 295 4159ft 114kts
02-Feb-19 14:34 35.298482 -120.833973 294 3980ft 94kts
02-Feb-19 14:35 35.312819 -120.859816 287 3986ft 94kts
02-Feb-19 14:36 35.327029 -120.891800 287 3984ft 112kts
02-Feb-19 14:37 35.341730 -120.926054 286 3982ft 114kts
02-Feb-19 14:38 35.356544 -120.960323 288 3980ft 113kts
02-Feb-19 14:39 35.371172 -120.994264 287 3978ft 113kts
02-Feb-19 14:40 35.396663 -120.987587 94 3973ft 125kts
02-Feb-19 14:41 35.394932 -120.945599 102 3973ft 123kts
02-Feb-19 14:42 35.385880 -120.907395 128 3974ft 113kts
02-Feb-19 14:43 35.369248 -120.874247 131 3940ft 114kts
02-Feb-19 14:44 35.352804 -120.843838 132 3740ft 103kts
02-Feb-19 14:45 35.338408 -120.817170 136 3495ft 93kts
02-Feb-19 14:46 35.321898 -120.788329 132 2931ft 110kts
02-Feb-19 14:47 35.304834 -120.758376 134 2538ft 106kts
02-Feb-19 14:48 35.286451 -120.726338 131 1805ft 117kts
02-Feb-19 14:49 35.267757 -120.693830 130 1139ft 117kts
02-Feb-19 14:50 35.249728 -120.662374 134 352ft 101kts
02-Feb-19 14:51 35.237980 -120.643752 154 216ft 21kts
02-Feb-19 14:52 35.237516 -120.639891 356 216ft 0kts
02-Feb-19 14:53 35.238302 -120.639597 22 216ft 0kts

Navigation Log

Ident Type
Flight plan parsing failed, navigation log unavailable